createdAt,value
2019-04-10T00:01:21.229Z,33.90
2019-04-10T00:03:51.706Z,32.87
2019-04-10T00:06:21.981Z,31.97
2019-04-10T00:08:52.787Z,31.40
2019-04-10T00:11:23.340Z,32.13
2019-04-10T00:13:53.642Z,32.47
2019-04-10T00:16:24.506Z,31.20
2019-04-10T00:18:56.031Z,29.10
2019-04-10T00:21:26.712Z,32.60
2019-04-10T00:23:57.708Z,33.50
2019-04-10T00:26:29.929Z,30.87
2019-04-10T00:29:00.544Z,31.50
2019-04-10T00:31:31.780Z,30.88
2019-04-10T00:34:02.164Z,30.93
2019-04-10T00:36:33.184Z,31.00
2019-04-10T00:39:06.459Z,32.07
2019-04-10T00:41:37.011Z,30.70
2019-04-10T00:44:07.790Z,32.50
2019-04-10T00:46:40.102Z,34.17
2019-04-10T00:49:10.339Z,31.57
2019-04-10T00:51:41.947Z,33.17
2019-04-10T00:54:12.152Z,33.17
2019-04-10T00:56:43.347Z,34.53
2019-04-10T00:59:13.565Z,32.23
2019-04-10T01:01:43.857Z,33.10
2019-04-10T01:04:14.155Z,34.33
2019-04-10T01:06:44.386Z,33.53
2019-04-10T01:09:15.387Z,34.67
2019-04-10T01:11:45.784Z,32.33
2019-04-10T01:14:15.918Z,35.77
2019-04-10T01:16:47.278Z,31.07
2019-04-10T01:19:17.626Z,33.60
2019-04-10T01:21:48.119Z,35.50
2019-04-10T01:24:19.558Z,33.67
2019-04-10T01:26:50.051Z,32.73
2019-04-10T01:29:21.730Z,32.30
2019-04-10T01:31:53.115Z,32.43
2019-04-10T01:34:23.325Z,33.57
2019-04-10T01:36:54.580Z,32.98
2019-04-10T01:39:28.648Z,33.23
2019-04-10T01:41:58.791Z,30.97
2019-04-10T01:44:30.920Z,31.97
2019-04-10T01:47:01.253Z,31.17
2019-04-10T01:49:31.573Z,30.40
2019-04-10T01:52:01.789Z,31.97
2019-04-10T01:54:31.972Z,30.80
2019-04-10T01:57:04.095Z,31.03
2019-04-10T01:59:36.166Z,31.60
2019-04-10T02:02:29.464Z,32.33
2019-04-10T02:05:00.673Z,31.73
2019-04-10T02:07:31.918Z,35.27
2019-04-10T02:10:03.678Z,40.00
2019-04-10T02:12:35.250Z,37.43
2019-04-10T02:15:11.239Z,38.93
2019-04-10T02:17:39.423Z,37.90
2019-04-10T02:20:10.490Z,42.53
2019-04-10T02:22:40.787Z,40.07
2019-04-10T02:25:12.080Z,42.70
2019-04-10T02:27:42.691Z,42.05
2019-04-10T02:30:16.395Z,41.70
2019-04-10T02:32:48.239Z,44.17
2019-04-10T02:35:20.272Z,46.03
2019-04-10T02:37:54.963Z,44.23
2019-04-10T02:40:23.681Z,46.07
2019-04-10T02:42:54.759Z,44.90
2019-04-10T02:45:25.965Z,43.83
2019-04-10T02:47:56.605Z,42.97
2019-04-10T02:50:27.349Z,43.83
2019-04-10T02:52:59.249Z,44.70
2019-04-10T02:55:31.384Z,47.57
2019-04-10T02:58:02.596Z,45.60
2019-04-10T03:00:35.891Z,45.27
2019-04-10T03:03:06.528Z,46.33
2019-04-10T03:05:38.286Z,44.27
2019-04-10T03:08:09.352Z,44.57
2019-04-10T03:10:48.614Z,44.60
2019-04-10T03:13:13.741Z,46.80
2019-04-10T03:15:45.453Z,47.87
2019-04-10T03:18:16.756Z,49.10
2019-04-10T03:20:47.404Z,46.85
2019-04-10T03:23:17.712Z,46.87
2019-04-10T03:25:48.834Z,48.33
2019-04-10T03:28:19.241Z,47.57
2019-04-10T03:30:49.627Z,47.40
2019-04-10T03:33:33.727Z,49.03
2019-04-10T03:36:05.277Z,48.03
2019-04-10T03:38:49.666Z,48.93
2019-04-10T03:41:08.137Z,51.03
2019-04-10T03:43:38.348Z,49.43
2019-04-10T03:46:08.930Z,47.40
2019-04-10T03:48:39.270Z,52.23
2019-04-10T03:51:09.647Z,50.77
2019-04-10T03:53:40.354Z,52.77
2019-04-10T03:56:11.718Z,54.70
2019-04-10T03:58:42.073Z,52.70
2019-04-10T04:01:12.314Z,56.83
2019-04-10T04:03:42.700Z,54.00
2019-04-10T04:06:12.936Z,54.07
2019-04-10T04:08:43.691Z,52.00
2019-04-10T04:11:13.824Z,52.27
2019-04-10T04:13:44.084Z,53.67
2019-04-10T04:16:15.027Z,53.03
2019-04-10T04:18:45.711Z,52.67
2019-04-10T04:21:16.055Z,52.63
2019-04-10T04:23:46.848Z,51.77
2019-04-10T04:26:17.195Z,53.40
2019-04-10T04:28:47.370Z,54.80
2019-04-10T04:31:18.116Z,55.37
2019-04-10T04:33:48.965Z,54.80
2019-04-10T04:36:20.486Z,58.57
2019-04-10T04:38:51.414Z,56.47
2019-04-10T04:41:23.173Z,56.90
2019-04-10T04:43:53.446Z,57.57
2019-04-10T04:46:23.994Z,56.67
2019-04-10T04:48:57.739Z,57.20
2019-04-10T04:51:27.950Z,55.10
2019-04-10T04:53:58.998Z,56.77
2019-04-10T04:56:29.486Z,56.40
2019-04-10T04:58:59.967Z,54.57
2019-04-10T05:01:31.721Z,56.70
2019-04-10T05:04:02.432Z,56.50
2019-04-10T05:06:35.057Z,59.47
2019-04-10T05:09:07.669Z,54.80
2019-04-10T05:11:38.547Z,58.20
2019-04-10T05:14:08.785Z,57.30
2019-04-10T05:16:39.541Z,59.27
2019-04-10T05:19:10.225Z,58.00
2019-04-10T05:21:41.501Z,54.77
2019-04-10T05:24:13.714Z,55.20
2019-04-10T05:26:44.840Z,56.90
2019-04-10T05:29:15.500Z,55.33
2019-04-10T05:31:46.610Z,54.70
2019-04-10T05:34:17.791Z,55.37
2019-04-10T05:36:49.142Z,54.70
2019-04-10T05:39:20.565Z,57.43
2019-04-10T05:41:51.077Z,55.15
2019-04-10T05:44:21.489Z,53.50
2019-04-10T05:46:52.683Z,52.93
2019-04-10T05:49:24.673Z,61.50
2019-04-10T05:51:55.621Z,52.23
2019-04-10T05:54:27.080Z,53.73
2019-04-10T05:56:57.397Z,54.93
2019-04-10T05:59:28.074Z,53.20
2019-04-10T06:01:59.161Z,55.45
2019-04-10T06:04:29.555Z,52.83
2019-04-10T06:06:59.675Z,53.57
2019-04-10T06:09:31.158Z,54.40
2019-04-10T06:12:02.318Z,50.10
2019-04-10T06:14:34.505Z,59.07
2019-04-10T06:17:05.996Z,56.57
2019-04-10T06:19:36.490Z,55.70
2019-04-10T06:22:09.645Z,51.07
2019-04-10T06:24:40.430Z,54.03
2019-04-10T06:27:12.361Z,53.90
2019-04-10T06:29:43.471Z,54.37
2019-04-10T06:32:16.965Z,54.95
2019-04-10T06:34:48.114Z,53.40
2019-04-10T06:37:19.035Z,55.67
2019-04-10T06:39:49.424Z,52.27
2019-04-10T06:42:22.752Z,54.93
2019-04-10T06:44:52.933Z,53.38
2019-04-10T06:47:23.068Z,52.45
2019-04-10T06:49:55.352Z,57.47
2019-04-10T06:52:27.016Z,57.05
2019-04-10T06:54:57.435Z,53.13
2019-04-10T06:57:27.771Z,51.97
2019-04-10T06:59:59.756Z,52.60
2019-04-10T07:02:31.579Z,51.27
2019-04-10T07:05:06.250Z,51.87
2019-04-10T07:07:46.546Z,51.42
2019-04-10T07:10:21.415Z,50.65
2019-04-10T07:12:39.924Z,50.73
2019-04-10T07:15:10.682Z,51.27
2019-04-10T07:17:43.191Z,54.80
2019-04-10T07:20:17.624Z,52.40
2019-04-10T07:22:47.160Z,50.57
2019-04-10T07:25:19.619Z,51.70
2019-04-10T07:27:50.295Z,55.23
2019-04-10T07:30:24.156Z,56.20
2019-04-10T07:32:53.073Z,48.57
2019-04-10T07:35:23.802Z,49.37
2019-04-10T07:37:56.686Z,49.80
2019-04-10T07:40:26.126Z,57.03
2019-04-10T07:42:56.719Z,50.07
2019-04-10T07:45:27.349Z,50.30
2019-04-10T07:47:57.878Z,48.07
2019-04-10T07:50:28.693Z,48.10
2019-04-10T07:52:59.839Z,48.53
2019-04-10T07:55:30.938Z,47.83
2019-04-10T07:58:02.690Z,46.67
2019-04-10T08:00:33.075Z,47.63
2019-04-10T08:03:04.171Z,47.33
2019-04-10T08:05:35.432Z,46.35
2019-04-10T08:08:06.004Z,46.47
2019-04-10T08:10:37.360Z,46.43
2019-04-10T08:13:08.594Z,43.43
2019-04-10T08:15:39.104Z,47.00
2019-04-10T08:18:10.062Z,46.63
2019-04-10T08:20:40.391Z,43.27
2019-04-10T08:23:12.204Z,45.03
2019-04-10T08:25:43.121Z,43.70
2019-04-10T08:28:13.625Z,46.17
2019-04-10T08:30:44.062Z,43.07
2019-04-10T08:33:14.421Z,45.17
2019-04-10T08:35:45.453Z,42.73
2019-04-10T08:38:17.234Z,42.60
2019-04-10T08:40:48.223Z,43.90
2019-04-10T08:43:18.752Z,42.47
2019-04-10T08:45:52.073Z,43.93
2019-04-10T08:48:21.955Z,42.57
2019-04-10T08:50:52.610Z,43.70
2019-04-10T08:53:22.839Z,45.67
2019-04-10T08:55:53.028Z,44.83
2019-04-10T08:58:24.957Z,42.60
2019-04-10T09:00:56.597Z,42.57
2019-04-10T09:03:27.142Z,44.23
2019-04-10T09:05:57.354Z,43.37
2019-04-10T09:08:28.765Z,44.67
2019-04-10T09:10:59.535Z,43.63
2019-04-10T09:13:30.669Z,47.27
2019-04-10T09:16:00.955Z,41.80
2019-04-10T09:18:31.558Z,41.93
2019-04-10T09:21:02.776Z,44.50
2019-04-10T09:23:42.548Z,46.50
2019-04-10T09:26:05.860Z,44.03
2019-04-10T09:28:36.091Z,40.33
2019-04-10T09:31:07.356Z,42.83
2019-04-10T09:33:37.658Z,43.10
2019-04-10T09:36:09.041Z,42.10
2019-04-10T09:38:43.927Z,43.00
2019-04-10T09:41:14.036Z,42.37
2019-04-10T09:43:45.610Z,41.37
2019-04-10T09:46:16.282Z,45.80
2019-04-10T09:48:46.430Z,43.50
2019-04-10T09:51:19.447Z,38.80
2019-04-10T09:53:51.015Z,40.77
2019-04-10T09:56:21.502Z,40.40
2019-04-10T09:58:51.981Z,40.93
2019-04-10T10:01:22.251Z,40.23
2019-04-10T10:03:52.829Z,39.50
2019-04-10T10:06:29.908Z,40.93
2019-04-10T10:08:58.457Z,40.40
2019-04-10T10:11:28.750Z,40.40
2019-04-10T10:13:59.191Z,40.70
2019-04-10T10:16:30.352Z,40.67
2019-04-10T10:19:01.606Z,40.50
2019-04-10T10:21:32.469Z,38.87
2019-04-10T10:24:03.138Z,39.10
2019-04-10T10:26:34.390Z,39.60
2019-04-10T10:29:05.171Z,41.17
2019-04-10T10:31:36.069Z,40.47
2019-04-10T10:34:06.514Z,40.30
2019-04-10T10:36:41.932Z,40.70
2019-04-10T10:39:19.380Z,40.07
2019-04-10T10:41:51.244Z,40.80
2019-04-10T10:44:22.031Z,39.50
2019-04-10T10:46:52.302Z,38.85
2019-04-10T10:49:22.572Z,40.20
2019-04-10T10:51:53.297Z,39.03
2019-04-10T10:54:23.555Z,39.80
2019-04-10T10:56:54.936Z,40.60
2019-04-10T10:59:25.426Z,39.60
2019-04-10T11:01:56.074Z,38.80
2019-04-10T11:04:27.421Z,40.10
2019-04-10T11:07:00.902Z,38.60
2019-04-10T11:09:30.185Z,41.67
2019-04-10T11:12:01.727Z,39.87
2019-04-10T11:14:33.036Z,40.57
2019-04-10T11:17:03.444Z,39.43
2019-04-10T11:19:35.535Z,39.00
2019-04-10T11:22:07.631Z,41.10
2019-04-10T11:24:40.747Z,40.37
2019-04-10T11:27:11.605Z,39.50
2019-04-10T11:29:42.648Z,40.40
2019-04-10T11:32:14.393Z,38.67
2019-04-10T11:34:46.567Z,39.87
2019-04-10T11:37:27.099Z,41.17
2019-04-10T11:39:50.797Z,40.30
2019-04-10T11:42:22.603Z,43.10
2019-04-10T11:45:01.873Z,41.83
2019-04-10T11:47:35.410Z,39.83
2019-04-10T11:50:13.407Z,40.30
2019-04-10T11:52:49.004Z,37.43
2019-04-10T11:55:19.895Z,43.00
2019-04-10T11:57:48.945Z,40.17
2019-04-10T12:00:33.266Z,38.83
2019-04-10T12:03:08.735Z,38.77
2019-04-10T12:13:17.996Z,39.90
2019-04-10T12:15:48.449Z,37.90
2019-04-10T12:18:20.130Z,37.10
2019-04-10T12:20:51.537Z,38.00
2019-04-10T12:23:23.134Z,37.85
2019-04-10T12:25:53.805Z,39.60
2019-04-10T12:28:24.206Z,38.80
2019-04-10T12:30:55.489Z,39.73
2019-04-10T12:33:26.260Z,46.53
2019-04-10T12:36:00.394Z,39.00
2019-04-10T12:38:31.909Z,38.97
2019-04-10T12:41:03.444Z,39.15
2019-04-10T12:43:34.753Z,41.17
2019-04-10T12:46:11.372Z,41.70
2019-04-10T12:48:47.215Z,39.30
2019-04-10T12:51:20.136Z,40.60
2019-04-10T12:53:56.143Z,40.47
2019-04-10T12:56:26.947Z,41.17
2019-04-10T12:58:57.493Z,41.40
2019-04-10T13:01:28.910Z,41.73
2019-04-10T13:04:03.748Z,42.30
2019-04-10T13:06:34.163Z,40.40
2019-04-10T13:09:11.507Z,39.50
2019-04-10T13:11:38.958Z,45.95
2019-04-10T13:14:10.468Z,47.47
2019-04-10T13:16:41.372Z,41.90
2019-04-10T13:19:13.166Z,42.20
2019-04-10T13:21:44.400Z,43.27
2019-04-10T13:24:14.810Z,38.95
2019-04-10T13:26:46.117Z,40.50
2019-04-10T13:29:16.315Z,39.37
2019-04-10T13:31:46.765Z,38.90
2019-04-10T13:34:18.232Z,38.07
2019-04-10T13:36:49.283Z,49.93
2019-04-10T13:39:20.409Z,39.60
2019-04-10T13:41:50.695Z,37.90
2019-04-10T13:44:22.357Z,38.73
2019-04-10T13:46:53.197Z,37.58
2019-04-10T13:49:24.058Z,40.20
2019-04-10T13:51:54.398Z,38.10
2019-04-10T13:54:24.801Z,38.43
2019-04-10T13:56:55.306Z,38.63
2019-04-10T13:59:27.559Z,39.73
2019-04-10T14:01:58.472Z,36.33
2019-04-10T14:04:29.878Z,38.87
2019-04-10T14:07:00.521Z,47.87
2019-04-10T14:09:38.758Z,39.30
2019-04-10T14:12:03.999Z,34.10
2019-04-10T14:14:35.089Z,33.33
2019-04-10T14:17:06.937Z,31.52
2019-04-10T14:19:37.667Z,32.20
2019-04-10T14:22:09.278Z,31.48
2019-04-10T14:24:44.740Z,31.93
2019-04-10T14:27:18.282Z,30.55
2019-04-10T14:29:49.103Z,30.67
2019-04-10T14:32:33.418Z,29.50
2019-04-10T14:35:03.768Z,30.03
2019-04-10T14:37:34.208Z,28.80
2019-04-10T14:40:05.680Z,30.50
2019-04-10T14:42:38.265Z,28.77
2019-04-10T14:45:09.316Z,29.00
2019-04-10T14:47:39.757Z,30.10
2019-04-10T14:50:10.491Z,29.13
2019-04-10T14:52:41.142Z,29.27
2019-04-10T14:55:12.459Z,30.37
2019-04-10T14:57:43.264Z,29.53
2019-04-10T15:00:22.419Z,31.93
2019-04-10T15:02:52.636Z,30.53
2019-04-10T15:05:24.374Z,29.17
2019-04-10T15:07:55.357Z,31.17
2019-04-10T15:10:25.833Z,26.53
2019-04-10T15:13:06.950Z,27.17
2019-04-10T15:15:28.498Z,27.13
2019-04-10T15:17:59.032Z,26.13
2019-04-10T15:20:29.591Z,26.40
2019-04-10T15:23:00.834Z,27.70
2019-04-10T15:25:31.608Z,26.73
2019-04-10T15:28:04.359Z,23.73
2019-04-10T15:30:34.746Z,23.90
2019-04-10T15:33:06.623Z,24.17
2019-04-10T15:35:38.358Z,23.70
2019-04-10T15:38:09.480Z,22.80
2019-04-10T15:40:39.959Z,22.97
2019-04-10T15:43:10.866Z,22.97
2019-04-10T15:45:41.514Z,24.13
2019-04-10T15:48:12.505Z,23.83
2019-04-10T15:50:43.459Z,24.20
2019-04-10T15:53:13.916Z,22.07
2019-04-10T15:55:45.310Z,24.03
2019-04-10T15:58:36.442Z,22.93
2019-04-10T16:01:09.775Z,23.20
2019-04-10T16:03:40.786Z,22.87
2019-04-10T16:06:11.190Z,24.00
2019-04-10T16:08:42.703Z,24.20
2019-04-10T16:11:33.876Z,22.30
2019-04-10T16:14:16.857Z,22.33
2019-04-10T16:17:08.855Z,22.43
2019-04-10T16:19:51.391Z,22.90
2019-04-10T16:22:35.194Z,23.43
2019-04-10T16:25:15.985Z,23.70
2019-04-10T16:27:46.456Z,22.97
2019-04-10T16:30:18.832Z,23.60
2019-04-10T16:32:50.103Z,24.00
2019-04-10T16:35:21.093Z,26.70
2019-04-10T16:37:51.833Z,23.33
2019-04-10T16:40:22.700Z,24.43
2019-04-10T16:42:53.391Z,23.80
2019-04-10T16:45:24.525Z,25.80
2019-04-10T16:47:54.763Z,24.40
2019-04-10T16:50:25.889Z,28.63
2019-04-10T16:52:56.232Z,26.67
2019-04-10T16:55:26.910Z,42.73
2019-04-10T16:57:57.512Z,39.67
2019-04-10T17:00:27.765Z,37.90
2019-04-10T17:02:58.018Z,43.20
2019-04-10T17:05:33.671Z,32.30
2019-04-10T17:08:03.950Z,33.90
2019-04-10T17:10:34.622Z,32.00
2019-04-10T17:13:07.301Z,28.27
2019-04-10T17:15:37.794Z,27.42
2019-04-10T17:18:08.718Z,26.57
2019-04-10T17:20:38.924Z,24.83
2019-04-10T17:23:10.021Z,24.40
2019-04-10T17:25:40.562Z,25.40
2019-04-10T17:28:12.202Z,25.73
2019-04-10T17:30:44.128Z,41.97
2019-04-10T17:33:15.031Z,24.20
2019-04-10T17:35:47.520Z,23.27
2019-04-10T17:38:20.425Z,23.27
2019-04-10T17:40:55.101Z,22.93
2019-04-10T17:43:23.630Z,23.47
2019-04-10T17:45:55.165Z,23.00
2019-04-10T17:48:28.048Z,22.97
2019-04-10T17:50:58.331Z,24.70
2019-04-10T17:53:29.396Z,22.47
2019-04-10T17:56:02.120Z,23.50
2019-04-10T17:58:34.427Z,22.60
2019-04-10T18:01:08.370Z,23.63
2019-04-10T18:03:47.277Z,24.07
2019-04-10T18:06:12.686Z,24.63
2019-04-10T18:08:43.216Z,26.20
2019-04-10T18:11:14.171Z,24.53
2019-04-10T18:13:44.980Z,27.57
2019-04-10T18:16:15.714Z,26.00
2019-04-10T18:18:47.300Z,26.00
2019-04-10T18:21:20.317Z,26.73
2019-04-10T18:23:51.488Z,27.90
2019-04-10T18:26:23.678Z,29.60
2019-04-10T18:28:54.378Z,28.80
2019-04-10T18:31:26.461Z,27.23
2019-04-10T18:33:56.728Z,28.90
2019-04-10T18:36:28.400Z,27.77
2019-04-10T18:38:59.697Z,30.47
2019-04-10T18:41:31.835Z,34.95
2019-04-10T18:44:02.649Z,29.70
2019-04-10T18:46:33.392Z,31.83
2019-04-10T18:49:03.811Z,29.40
2019-04-10T18:51:36.230Z,31.07
2019-04-10T18:54:08.092Z,30.47
2019-04-10T18:56:39.286Z,31.97
2019-04-10T18:59:16.422Z,30.83
2019-04-10T19:02:08.350Z,30.33
2019-04-10T19:04:53.667Z,30.80
2019-04-10T19:07:25.108Z,28.13
2019-04-10T19:09:56.643Z,29.83
2019-04-10T19:12:28.658Z,30.97
2019-04-10T19:14:59.317Z,30.63
2019-04-10T19:17:31.016Z,32.43
2019-04-10T19:20:02.161Z,32.30
2019-04-10T19:22:34.729Z,32.30
2019-04-10T19:25:06.155Z,32.70
2019-04-10T19:27:37.120Z,32.70
2019-04-10T19:30:14.959Z,32.17
2019-04-10T19:32:45.836Z,33.27
2019-04-10T19:35:16.982Z,33.70
2019-04-10T19:37:50.401Z,33.20
2019-04-10T19:40:21.219Z,33.67
2019-04-10T19:42:51.917Z,33.23
2019-04-10T19:45:22.366Z,32.87
2019-04-10T19:47:53.032Z,32.88
2019-04-10T19:50:24.119Z,30.80
2019-04-10T19:52:55.085Z,30.70
2019-04-10T19:55:25.381Z,31.33
2019-04-10T19:57:56.016Z,30.07
2019-04-10T20:00:30.955Z,30.40
2019-04-10T20:03:01.578Z,31.70
2019-04-10T20:05:32.200Z,31.50
2019-04-10T20:08:02.993Z,28.90
2019-04-10T20:10:33.791Z,27.47
2019-04-10T20:13:04.780Z,29.87
2019-04-10T20:15:36.300Z,28.60
2019-04-10T20:18:08.571Z,27.80
2019-04-10T20:20:39.897Z,26.57
2019-04-10T20:23:23.664Z,27.50
2019-04-10T20:25:55.392Z,25.20
2019-04-10T20:28:26.830Z,27.20
2019-04-10T20:30:58.087Z,25.10
2019-04-10T20:33:30.597Z,26.47
2019-04-10T20:36:01.222Z,25.63
2019-04-10T20:38:33.394Z,26.73
2019-04-10T20:41:04.626Z,24.50
2019-04-10T20:43:35.327Z,25.57
2019-04-10T20:46:06.599Z,23.10
2019-04-10T20:48:38.355Z,22.50
2019-04-10T20:51:09.285Z,22.80
2019-04-10T20:53:40.251Z,22.50
2019-04-10T20:56:10.800Z,21.05
2019-04-10T20:58:42.133Z,19.80
2019-04-10T21:01:14.457Z,19.80
2019-04-10T21:03:45.388Z,19.50
2019-04-10T21:06:17.505Z,20.57
2019-04-10T21:08:48.200Z,21.17
2019-04-10T21:11:18.722Z,20.67
2019-04-10T21:13:49.101Z,20.70
2019-04-10T21:16:19.900Z,21.00
2019-04-10T21:18:51.829Z,20.90
2019-04-10T21:21:24.330Z,19.87
2019-04-10T21:23:56.482Z,20.07
2019-04-10T21:26:30.496Z,19.47
2019-04-10T21:29:01.028Z,19.02
2019-04-10T21:31:53.257Z,19.53
2019-04-10T21:34:30.472Z,19.70
2019-04-10T21:37:01.772Z,17.83
2019-04-10T21:39:32.134Z,18.57
2019-04-10T21:42:13.129Z,19.17
2019-04-10T21:44:35.214Z,17.33
2019-04-10T21:47:05.551Z,18.42
2019-04-10T21:49:38.025Z,17.57
2019-04-10T21:52:09.728Z,16.47
2019-04-10T21:54:49.787Z,18.03
2019-04-10T21:57:12.454Z,17.03
2019-04-10T21:59:43.180Z,17.70
2019-04-10T22:02:13.490Z,16.53
2019-04-10T22:04:43.752Z,16.30
2019-04-10T22:07:41.995Z,17.17
2019-04-10T22:10:28.064Z,17.20
2019-04-10T22:12:59.501Z,15.97
2019-04-10T22:15:39.427Z,18.30
2019-04-10T22:18:11.167Z,15.67
2019-04-10T22:20:41.681Z,16.57
2019-04-10T22:23:12.254Z,16.80
2019-04-10T22:25:43.724Z,16.13
2019-04-10T22:28:14.953Z,16.83
2019-04-10T22:30:46.607Z,16.60
2019-04-10T22:33:18.116Z,16.67
2019-04-10T22:35:48.429Z,16.00
2019-04-10T22:38:19.410Z,16.10
2019-04-10T22:40:50.364Z,15.57
2019-04-10T22:43:20.829Z,15.43
2019-04-10T22:45:51.036Z,15.50
2019-04-10T22:48:21.203Z,14.20
2019-04-10T22:50:51.508Z,15.50
2019-04-10T22:53:21.725Z,16.33
2019-04-10T22:55:52.834Z,13.90
2019-04-10T22:58:23.052Z,13.60
2019-04-10T23:00:53.896Z,14.30
2019-04-10T23:03:24.478Z,13.87
2019-04-10T23:05:54.867Z,12.53
2019-04-10T23:08:25.417Z,12.93
2019-04-10T23:10:55.743Z,14.13
2019-04-10T23:13:30.095Z,13.40
2019-04-10T23:16:00.423Z,13.37
2019-04-10T23:18:31.743Z,13.50
2019-04-10T23:21:02.345Z,13.63
2019-04-10T23:23:32.851Z,13.97
2019-04-10T23:26:03.111Z,12.43
2019-04-10T23:28:33.758Z,12.17
2019-04-10T23:31:05.689Z,13.50
2019-04-10T23:33:36.583Z,13.07
2019-04-10T23:36:07.684Z,13.00
2019-04-10T23:38:37.909Z,12.67
2019-04-10T23:41:09.386Z,12.70
2019-04-10T23:43:40.058Z,13.10
2019-04-10T23:46:12.763Z,12.17
2019-04-10T23:48:44.706Z,13.07
2019-04-10T23:51:14.838Z,13.00
2019-04-10T23:53:46.698Z,13.15
2019-04-10T23:56:17.755Z,14.57
2019-04-10T23:58:49.204Z,14.45
